createdAt,value
2018-09-04T00:00:48.330Z,18.60
2018-09-04T00:01:48.538Z,18.60
2018-09-04T00:03:51.517Z,18.63
2018-09-04T00:04:51.658Z,18.63
2018-09-04T00:05:51.849Z,18.62
2018-09-04T00:06:51.989Z,18.63
2018-09-04T00:07:52.271Z,18.62
2018-09-04T00:08:51.527Z,18.60
2018-09-04T00:09:51.900Z,18.60
2018-09-04T00:10:52.077Z,18.60
2018-09-04T00:11:51.300Z,18.60
2018-09-04T00:12:52.242Z,18.60
2018-09-04T00:13:51.239Z,18.60
2018-09-04T00:14:51.356Z,18.59
2018-09-04T00:15:51.596Z,18.58
2018-09-04T00:16:51.830Z,18.59
2018-09-04T00:18:13.061Z,18.56
2018-09-04T00:19:13.267Z,18.56
2018-09-04T00:20:34.618Z,18.56
2018-09-04T00:21:34.808Z,18.53
2018-09-04T00:22:34.973Z,18.55
2018-09-04T00:23:35.206Z,18.53
2018-09-04T00:24:35.466Z,18.53
2018-09-04T00:25:35.966Z,18.53
2018-09-04T00:26:56.073Z,18.55
2018-09-04T00:27:56.170Z,18.50
2018-09-04T00:28:56.388Z,18.50
2018-09-04T00:29:56.647Z,18.50
2018-09-04T00:30:56.830Z,18.53
2018-09-04T00:31:56.111Z,18.53
2018-09-04T00:32:56.404Z,18.52
2018-09-04T00:33:56.547Z,18.53
2018-09-04T00:34:56.688Z,18.53
2018-09-04T00:35:56.735Z,18.53
2018-09-04T00:36:56.929Z,18.52
2018-09-04T00:37:56.184Z,18.52
2018-09-04T00:38:56.341Z,18.53
2018-09-04T00:40:17.607Z,18.53
2018-09-04T00:41:38.681Z,18.56
2018-09-04T00:42:38.689Z,18.58
2018-09-04T00:43:38.747Z,18.58
2018-09-04T00:44:39.059Z,18.59
2018-09-04T00:45:39.119Z,18.59
2018-09-04T00:46:39.324Z,18.58
2018-09-04T00:48:00.257Z,18.56
2018-09-04T00:49:00.574Z,18.52
2018-09-04T00:50:00.700Z,18.49
2018-09-04T00:51:00.915Z,18.50
2018-09-04T00:52:01.138Z,18.55
2018-09-04T00:53:21.402Z,18.53
2018-09-04T00:54:21.463Z,18.53
2018-09-04T00:55:21.407Z,18.53
2018-09-04T00:56:21.654Z,18.55
2018-09-04T00:57:43.193Z,18.56
2018-09-04T00:58:43.363Z,18.56
2018-09-04T01:00:04.532Z,18.59
2018-09-04T01:01:04.650Z,18.59
2018-09-04T01:02:04.915Z,18.59
2018-09-04T01:03:04.970Z,18.60
2018-09-04T01:04:05.165Z,18.60
2018-09-04T01:05:05.438Z,18.59
2018-09-04T01:06:04.870Z,18.58
2018-09-04T01:07:05.139Z,18.59
2018-09-04T01:08:05.283Z,18.58
2018-09-04T01:09:04.595Z,18.58
2018-09-04T01:10:04.631Z,18.58
2018-09-04T01:11:04.858Z,18.56
2018-09-04T01:12:05.126Z,18.55
2018-09-04T01:13:04.361Z,18.52
2018-09-04T01:14:04.614Z,18.52
2018-09-04T01:15:04.810Z,18.47
2018-09-04T01:16:05.064Z,18.50
2018-09-04T01:17:05.344Z,18.47
2018-09-04T01:18:04.563Z,18.44
2018-09-04T01:19:04.936Z,18.43
2018-09-04T01:20:05.283Z,18.44
2018-09-04T01:21:04.542Z,18.43
2018-09-04T01:22:04.679Z,18.43
2018-09-04T01:23:04.878Z,18.41
2018-09-04T01:24:25.976Z,18.38
2018-09-04T01:25:26.130Z,18.34
2018-09-04T01:26:26.452Z,18.31
2018-09-04T01:27:26.358Z,18.28
2018-09-04T01:28:26.663Z,18.28
2018-09-04T01:29:27.159Z,18.26
2018-09-04T01:30:26.473Z,18.26
2018-09-04T01:31:26.708Z,18.28
2018-09-04T01:32:27.041Z,18.28
2018-09-04T01:33:26.136Z,18.26
2018-09-04T01:34:26.351Z,18.23
2018-09-04T01:35:26.498Z,18.18
2018-09-04T01:36:26.697Z,18.16
2018-09-04T01:37:26.863Z,18.13
2018-09-04T01:38:46.876Z,18.13
2018-09-04T01:39:46.959Z,18.08
2018-09-04T01:40:47.072Z,18.08
2018-09-04T01:41:47.294Z,18.05
2018-09-04T01:42:47.674Z,18.05
2018-09-04T01:43:47.770Z,18.03
2018-09-04T01:44:46.871Z,18.00
2018-09-04T01:46:08.010Z,17.95
2018-09-04T01:47:29.296Z,17.97
2018-09-04T01:48:29.771Z,17.97
2018-09-04T01:49:50.737Z,17.97
2018-09-04T01:50:51.016Z,17.94
2018-09-04T01:51:50.927Z,17.89
2018-09-04T01:53:11.758Z,17.87
2018-09-04T01:54:12.246Z,17.87
2018-09-04T01:55:12.502Z,17.87
2018-09-04T01:56:11.788Z,17.82
2018-09-04T01:57:33.006Z,17.79
2018-09-04T01:58:33.147Z,17.78
2018-09-04T01:59:33.462Z,17.74
2018-09-04T02:00:33.741Z,17.72
2018-09-04T02:01:33.767Z,17.74
2018-09-04T02:02:33.966Z,17.71
2018-09-04T02:03:33.187Z,17.67
2018-09-04T02:04:33.363Z,17.64
2018-09-04T02:05:33.342Z,17.60
2018-09-04T02:06:33.368Z,17.57
2018-09-04T02:07:54.447Z,17.51
2018-09-04T02:08:54.761Z,17.48
2018-09-04T02:09:55.075Z,17.49
2018-09-04T02:10:55.283Z,17.49
2018-09-04T02:11:55.548Z,17.49
2018-09-04T02:12:54.825Z,17.49
2018-09-04T02:13:55.111Z,17.49
2018-09-04T02:14:55.395Z,17.48
2018-09-04T02:15:54.662Z,17.49
2018-09-04T02:16:54.908Z,17.49
2018-09-04T02:17:55.186Z,17.48
2018-09-04T02:19:16.320Z,17.48
2018-09-04T02:20:16.459Z,17.48
2018-09-04T02:21:16.685Z,17.48
2018-09-04T02:22:16.827Z,17.45
2018-09-04T02:23:17.103Z,17.45
2018-09-04T02:24:16.434Z,17.45
2018-09-04T02:25:16.546Z,17.41
2018-09-04T02:26:16.697Z,17.38
2018-09-04T02:27:37.887Z,17.34
2018-09-04T02:28:59.747Z,17.31
2018-09-04T02:29:59.693Z,17.30
2018-09-04T02:31:00.080Z,17.29
2018-09-04T02:32:00.065Z,17.30
2018-09-04T02:33:00.324Z,17.31
2018-09-04T02:34:00.495Z,17.33
2018-09-04T02:35:00.801Z,17.34
2018-09-04T02:36:00.233Z,17.33
2018-09-04T02:37:00.266Z,17.29
2018-09-04T02:38:00.556Z,17.26
2018-09-04T02:38:59.664Z,17.26
2018-09-04T02:39:59.950Z,17.23
2018-09-04T02:41:00.188Z,17.23
2018-09-04T02:42:41.952Z,17.22
2018-09-04T02:44:04.303Z,17.23
2018-09-04T02:45:04.486Z,17.24
2018-09-04T02:46:04.711Z,17.23
2018-09-04T02:47:03.918Z,17.23
2018-09-04T02:48:03.970Z,17.20
2018-09-04T02:49:03.986Z,17.20
2018-09-04T02:50:24.710Z,17.16
2018-09-04T02:51:25.002Z,17.19
2018-09-04T02:52:25.224Z,17.19
2018-09-04T02:53:25.499Z,17.16
2018-09-04T02:54:25.638Z,17.16
2018-09-04T02:55:45.717Z,17.16
2018-09-04T02:56:45.928Z,17.16
2018-09-04T02:57:45.959Z,17.19
2018-09-04T02:58:46.165Z,17.14
2018-09-04T02:59:46.521Z,17.11
2018-09-04T03:00:45.776Z,17.08
2018-09-04T03:02:06.847Z,17.06
2018-09-04T03:03:06.966Z,17.08
2018-09-04T03:04:07.213Z,17.08
2018-09-04T03:05:07.569Z,17.08
2018-09-04T03:06:08.003Z,17.06
2018-09-04T03:07:07.658Z,17.04
2018-09-04T03:08:07.719Z,17.02
2018-09-04T03:09:07.944Z,17.01
2018-09-04T03:10:07.038Z,17.01
2018-09-04T03:11:07.290Z,16.99
2018-09-04T03:12:07.542Z,16.97
2018-09-04T03:13:07.816Z,16.96
2018-09-04T03:14:07.331Z,17.01
2018-09-04T03:15:07.672Z,16.97
2018-09-04T03:16:07.818Z,16.97
2018-09-04T03:17:08.835Z,16.96
2018-09-04T03:19:30.851Z,16.93
2018-09-04T03:20:31.197Z,16.91
2018-09-04T03:21:31.156Z,16.91
2018-09-04T03:22:31.355Z,16.89
2018-09-04T03:23:31.663Z,16.89
2018-09-04T03:24:31.891Z,16.90
2018-09-04T03:25:31.024Z,16.89
2018-09-04T03:26:30.993Z,16.87
2018-09-04T03:27:31.119Z,16.87
2018-09-04T03:28:31.275Z,16.86
2018-09-04T03:29:31.352Z,16.84
2018-09-04T03:30:31.461Z,16.79
2018-09-04T03:31:52.329Z,16.79
2018-09-04T03:32:52.590Z,16.78
2018-09-04T03:33:52.821Z,16.78
2018-09-04T03:34:53.151Z,16.78
2018-09-04T03:35:52.323Z,16.78
2018-09-04T03:36:52.470Z,16.76
2018-09-04T03:37:52.822Z,16.76
2018-09-04T03:38:53.198Z,16.74
2018-09-04T03:39:52.424Z,16.74
2018-09-04T03:40:52.549Z,16.74
2018-09-04T03:41:52.717Z,16.71
2018-09-04T03:42:52.820Z,16.68
2018-09-04T03:43:53.094Z,16.66
2018-09-04T03:44:52.192Z,16.66
2018-09-04T03:45:52.297Z,16.66
2018-09-04T03:46:52.465Z,16.66
2018-09-04T03:47:52.642Z,16.68
2018-09-04T03:48:52.966Z,16.66
2018-09-04T03:49:53.057Z,16.66
2018-09-04T03:50:53.136Z,16.66
2018-09-04T03:51:52.238Z,16.68
2018-09-04T03:52:52.268Z,16.69
2018-09-04T03:53:52.675Z,16.71
2018-09-04T03:54:52.749Z,16.68
2018-09-04T03:55:52.961Z,16.66
2018-09-04T03:56:53.260Z,16.65
2018-09-04T03:57:52.362Z,16.64
2018-09-04T03:58:52.654Z,16.61
2018-09-04T03:59:52.860Z,16.61
2018-09-04T04:00:53.250Z,16.61
2018-09-04T04:02:34.512Z,16.58
2018-09-04T04:03:34.678Z,16.58
2018-09-04T04:04:34.962Z,16.58
2018-09-04T04:05:35.162Z,16.57
2018-09-04T04:06:35.494Z,16.57
2018-09-04T04:07:34.654Z,16.58
2018-09-04T04:08:34.835Z,16.58
2018-09-04T04:09:35.035Z,16.58
2018-09-04T04:10:35.225Z,16.60
2018-09-04T04:11:56.502Z,16.60
2018-09-04T04:13:17.835Z,16.58
2018-09-04T04:14:18.676Z,16.57
2018-09-04T04:15:18.887Z,16.57
2018-09-04T04:16:18.290Z,16.56
2018-09-04T04:17:18.359Z,16.54
2018-09-04T04:18:18.483Z,16.56
2018-09-04T04:19:18.714Z,16.56
2018-09-04T04:20:18.091Z,16.51
2018-09-04T04:21:18.479Z,16.51
2018-09-04T04:22:18.957Z,16.50
2018-09-04T04:23:18.225Z,16.51
2018-09-04T04:24:18.536Z,16.50
2018-09-04T04:25:18.657Z,16.49
2018-09-04T04:26:18.886Z,16.50
2018-09-04T04:27:18.301Z,16.49
2018-09-04T04:28:18.487Z,16.47
2018-09-04T04:29:18.571Z,16.50
2018-09-04T04:31:00.046Z,16.51
2018-09-04T04:32:00.049Z,16.50
2018-09-04T04:33:42.832Z,16.47
2018-09-04T04:34:43.070Z,16.47
2018-09-04T04:35:43.254Z,16.47
2018-09-04T04:36:43.729Z,16.49
2018-09-04T04:37:43.100Z,16.49
2018-09-04T04:38:43.402Z,16.50
2018-09-04T04:39:42.819Z,16.50
2018-09-04T04:41:04.151Z,16.47
2018-09-04T04:42:04.449Z,16.49
2018-09-04T04:43:04.829Z,16.49
2018-09-04T04:44:04.966Z,16.50
2018-09-04T04:45:25.161Z,16.51
2018-09-04T04:46:25.631Z,16.51
2018-09-04T04:47:25.847Z,16.51
2018-09-04T04:48:26.311Z,16.54
2018-09-04T04:49:25.538Z,16.53
2018-09-04T04:50:25.690Z,16.54
2018-09-04T04:51:26.006Z,16.53
2018-09-04T04:52:26.159Z,16.50
2018-09-04T04:53:25.296Z,16.50
2018-09-04T04:54:25.559Z,16.50
2018-09-04T04:55:25.877Z,16.49
2018-09-04T04:56:26.203Z,16.49
2018-09-04T04:57:25.640Z,16.50
2018-09-04T04:58:25.940Z,16.49
2018-09-04T04:59:26.215Z,16.50
2018-09-04T05:00:25.572Z,16.50
2018-09-04T05:01:26.028Z,16.49
2018-09-04T05:02:25.382Z,16.50
2018-09-04T05:03:46.740Z,16.50
2018-09-04T05:05:08.701Z,16.50
2018-09-04T05:06:30.172Z,16.49
2018-09-04T05:07:30.779Z,16.50
2018-09-04T05:08:30.800Z,16.50
2018-09-04T05:09:51.445Z,16.49
2018-09-04T05:10:51.937Z,16.51
2018-09-04T05:11:52.378Z,16.53
2018-09-04T05:13:12.865Z,16.50
2018-09-04T05:14:55.252Z,16.50
2018-09-04T05:15:55.765Z,16.50
2018-09-04T05:16:56.130Z,16.51
2018-09-04T05:17:55.262Z,16.49
2018-09-04T05:18:55.486Z,16.51
2018-09-04T05:19:55.631Z,16.50
2018-09-04T05:20:55.633Z,16.49
2018-09-04T05:21:55.909Z,16.47
2018-09-04T05:22:56.229Z,16.46
2018-09-04T05:23:55.315Z,16.43
2018-09-04T05:24:55.839Z,16.47
2018-09-04T05:25:56.186Z,16.47
2018-09-04T05:27:37.529Z,16.49
2018-09-04T05:28:37.861Z,16.50
2018-09-04T05:29:38.283Z,16.50
2018-09-04T05:30:37.586Z,16.50
2018-09-04T05:31:58.881Z,16.50
2018-09-04T05:33:20.089Z,16.50
2018-09-04T05:34:41.313Z,16.50
2018-09-04T05:35:41.533Z,16.51
2018-09-04T05:36:41.920Z,16.53
2018-09-04T05:38:03.456Z,16.53
2018-09-04T05:39:03.836Z,16.53
2018-09-04T05:40:04.394Z,16.54
2018-09-04T05:41:03.759Z,16.58
2018-09-04T05:42:25.658Z,16.61
2018-09-04T05:44:30.113Z,16.66
2018-09-04T05:45:31.136Z,16.66
2018-09-04T05:46:30.640Z,16.68
2018-09-04T05:47:31.004Z,16.68
2018-09-04T05:48:30.252Z,16.69
2018-09-04T05:49:30.558Z,16.71
2018-09-04T05:50:51.878Z,16.74
2018-09-04T05:51:52.841Z,16.74
2018-09-04T05:53:13.391Z,16.75
2018-09-04T05:54:34.662Z,16.81
2018-09-04T05:55:34.616Z,16.86
2018-09-04T05:56:34.863Z,16.90
2018-09-04T05:57:35.230Z,16.93
2018-09-04T05:58:35.505Z,16.96
2018-09-04T05:59:34.826Z,16.96
2018-09-04T06:00:35.174Z,16.97
2018-09-04T06:01:35.900Z,16.99
2018-09-04T06:02:35.279Z,17.02
2018-09-04T06:03:35.512Z,17.01
2018-09-04T06:04:55.898Z,17.05
2018-09-04T06:05:56.312Z,17.09
2018-09-04T06:06:56.860Z,17.12
2018-09-04T06:07:56.309Z,17.12
2018-09-04T06:08:56.472Z,17.19
2018-09-04T06:10:17.765Z,17.23
2018-09-04T06:11:17.976Z,17.27
2018-09-04T06:12:18.311Z,17.27
2018-09-04T06:13:18.795Z,17.30
2018-09-04T06:14:18.293Z,17.33
2018-09-04T06:15:39.557Z,17.36
2018-09-04T06:16:39.773Z,17.41
2018-09-04T06:17:40.092Z,17.44
2018-09-04T06:18:40.513Z,17.46
2018-09-04T06:19:39.721Z,17.54
2018-09-04T06:21:21.660Z,17.60
2018-09-04T06:22:21.743Z,17.67
2018-09-04T06:23:21.978Z,17.74
2018-09-04T06:24:22.939Z,17.83
2018-09-04T06:25:23.105Z,17.97
2018-09-04T06:26:44.872Z,18.11
2018-09-04T06:27:44.392Z,18.18
2018-09-04T06:28:44.990Z,18.28
2018-09-04T06:29:44.541Z,18.43
2018-09-04T06:30:44.754Z,18.55
2018-09-04T06:31:44.280Z,18.63
2018-09-04T06:32:44.767Z,18.78
2018-09-04T06:34:05.644Z,19.00
2018-09-04T06:35:06.212Z,19.19
2018-09-04T06:36:05.843Z,19.41
2018-09-04T06:37:06.738Z,19.62
2018-09-04T06:38:06.149Z,19.84
2018-09-04T06:39:05.615Z,19.95
2018-09-04T06:40:06.130Z,20.07
2018-09-04T06:41:05.721Z,20.21
2018-09-04T06:42:27.506Z,20.39
2018-09-04T06:43:49.010Z,20.60
2018-09-04T06:44:49.329Z,20.69
2018-09-04T06:46:31.940Z,20.85
2018-09-04T06:47:32.739Z,20.99
2018-09-04T06:48:32.195Z,21.15
2018-09-04T06:49:32.907Z,21.27
2018-09-04T06:50:53.851Z,21.45
2018-09-04T06:51:54.305Z,21.58
2018-09-04T06:52:53.717Z,21.70
2018-09-04T06:54:15.168Z,21.67
2018-09-04T06:55:15.655Z,21.76
2018-09-04T06:56:36.823Z,22.08
2018-09-04T06:57:37.413Z,22.25
2018-09-04T06:58:37.833Z,22.45
2018-09-04T06:59:37.213Z,22.59
2018-09-04T07:00:37.758Z,22.80
2018-09-04T07:01:37.242Z,22.99
2018-09-04T07:02:37.480Z,23.08
2018-09-04T07:03:38.023Z,23.15
2018-09-04T07:04:37.708Z,23.23
2018-09-04T07:05:37.151Z,23.28
2018-09-04T07:06:37.517Z,23.41
2018-09-04T07:07:58.928Z,23.51
2018-09-04T07:08:59.026Z,23.74
2018-09-04T07:09:59.592Z,23.92
2018-09-04T07:10:59.112Z,24.01
2018-09-04T07:12:20.036Z,24.10
2018-09-04T07:13:20.443Z,24.16
2018-09-04T07:14:20.650Z,24.28
2018-09-04T07:15:20.848Z,24.42
2018-09-04T07:16:21.024Z,24.39
2018-09-04T07:17:20.239Z,24.43
2018-09-04T07:18:20.517Z,24.60
2018-09-04T07:19:22.180Z,24.73
2018-09-04T07:20:20.413Z,24.78
2018-09-04T07:21:20.631Z,24.84
2018-09-04T07:22:42.073Z,24.84
2018-09-04T07:24:03.523Z,25.01
2018-09-04T07:25:24.980Z,25.13
2018-09-04T07:26:25.184Z,25.33
2018-09-04T07:27:46.328Z,25.51
2018-09-04T07:28:46.598Z,25.63
2018-09-04T07:29:46.951Z,25.66
2018-09-04T07:30:47.361Z,25.77
2018-09-04T07:31:47.290Z,25.93
2018-09-04T07:32:46.880Z,26.00
2018-09-04T07:33:47.696Z,26.03
2018-09-04T07:34:47.045Z,26.16
2018-09-04T07:35:47.498Z,26.36
2018-09-04T07:36:46.822Z,26.44
2018-09-04T07:38:08.247Z,26.52
2018-09-04T07:39:30.042Z,26.63
2018-09-04T07:40:30.709Z,26.78
2018-09-04T07:41:30.130Z,26.84
2018-09-04T07:42:30.434Z,26.89
2018-09-04T07:43:30.929Z,26.93
2018-09-04T07:44:30.256Z,26.97
2018-09-04T07:45:30.586Z,27.02
2018-09-04T07:46:51.085Z,27.17
2018-09-04T07:47:51.351Z,27.22
2018-09-04T07:48:51.791Z,27.20
2018-09-04T07:49:52.056Z,27.22
2018-09-04T07:51:54.783Z,27.47
2018-09-04T07:52:55.114Z,27.63
2018-09-04T07:53:55.375Z,27.73
2018-09-04T07:54:55.937Z,27.86
2018-09-04T07:55:55.511Z,27.98
2018-09-04T07:56:55.852Z,28.15
2018-09-04T07:57:55.170Z,28.30
2018-09-04T07:58:55.624Z,28.48
2018-09-04T07:59:55.068Z,28.63
2018-09-04T08:00:55.593Z,28.75
2018-09-04T08:01:55.157Z,28.82
2018-09-04T08:02:55.586Z,28.79
2018-09-04T08:03:54.890Z,28.86
2018-09-04T08:04:55.347Z,29.01
2018-09-04T08:05:54.844Z,29.10
2018-09-04T08:06:55.463Z,29.23
2018-09-04T08:07:55.123Z,29.38
2018-09-04T08:09:16.733Z,29.44
2018-09-04T08:10:17.346Z,29.59
2018-09-04T08:11:16.849Z,29.78
2018-09-04T08:12:17.317Z,29.86
2018-09-04T08:13:17.723Z,29.95
2018-09-04T08:14:59.389Z,30.06
2018-09-04T08:15:59.607Z,30.10
2018-09-04T08:17:00.028Z,30.15
2018-09-04T08:18:00.333Z,30.32
2018-09-04T08:19:00.646Z,30.46
2018-09-04T08:20:00.335Z,30.53
2018-09-04T08:20:59.884Z,30.61
2018-09-04T08:22:00.361Z,30.63
2018-09-04T08:22:59.781Z,30.77
2018-09-04T08:24:00.340Z,30.88
2018-09-04T08:24:59.777Z,30.88
2018-09-04T08:26:00.014Z,30.83
2018-09-04T08:27:00.483Z,30.94
2018-09-04T08:27:59.850Z,31.07
2018-09-04T08:29:00.409Z,31.21
2018-09-04T08:29:59.798Z,31.29
2018-09-04T08:31:01.107Z,31.31
2018-09-04T08:32:20.830Z,31.36
2018-09-04T08:33:22.950Z,31.46
2018-09-04T08:34:42.392Z,31.52
2018-09-04T08:36:04.252Z,31.62
2018-09-04T08:37:26.278Z,31.76
2018-09-04T08:38:26.713Z,31.96
2018-09-04T08:39:27.341Z,32.03
2018-09-04T08:40:26.960Z,32.09
2018-09-04T08:41:26.509Z,32.18
2018-09-04T08:42:51.195Z,32.36
2018-09-04T08:43:50.487Z,32.51
2018-09-04T08:44:50.926Z,32.49
2018-09-04T08:45:50.245Z,32.56
2018-09-04T08:46:50.568Z,32.60
2018-09-04T08:48:12.014Z,32.78
2018-09-04T08:49:12.526Z,32.87
2018-09-04T08:50:11.994Z,32.95
2018-09-04T08:51:12.312Z,32.83
2018-09-04T08:52:12.780Z,32.68
2018-09-04T08:53:12.299Z,32.77
2018-09-04T08:54:12.654Z,32.87
2018-09-04T08:55:12.073Z,33.05
2018-09-04T08:56:12.698Z,33.27
2018-09-04T08:57:12.622Z,33.45
2018-09-04T08:58:35.355Z,33.61
2018-09-04T08:59:35.796Z,33.53
2018-09-04T09:00:36.102Z,33.62
2018-09-04T09:01:56.635Z,33.68
2018-09-04T09:02:57.090Z,33.73
2018-09-04T09:03:57.658Z,33.69
2018-09-04T09:04:56.935Z,33.64
2018-09-04T09:05:57.235Z,33.73
2018-09-04T09:06:56.917Z,33.77
2018-09-04T09:07:57.378Z,33.32
2018-09-04T09:08:56.818Z,33.32
2018-09-04T09:09:57.358Z,33.34
2018-09-04T09:10:56.977Z,33.59
2018-09-04T09:11:57.961Z,33.81
2018-09-04T09:12:57.296Z,33.94
2018-09-04T09:13:56.563Z,33.79
2018-09-04T09:16:21.902Z,34.03
2018-09-04T09:17:22.145Z,34.03
2018-09-04T09:18:23.270Z,34.05
2018-09-04T09:19:22.685Z,34.25
2018-09-04T09:20:22.155Z,34.36
2018-09-04T09:21:22.679Z,34.55
2018-09-04T09:22:22.055Z,34.62
2018-09-04T09:23:22.314Z,34.64
2018-09-04T09:24:22.631Z,34.81
2018-09-04T09:26:04.528Z,35.02
2018-09-04T09:27:26.058Z,35.11
2018-09-04T09:28:26.535Z,35.23
2018-09-04T09:29:27.021Z,35.29
2018-09-04T09:30:26.367Z,35.23
2018-09-04T09:31:27.781Z,35.29
2018-09-04T09:32:26.290Z,35.31
2018-09-04T09:33:26.721Z,35.05
2018-09-04T09:34:26.121Z,35.11
2018-09-04T09:35:47.741Z,35.17
2018-09-04T09:36:49.389Z,35.26
2018-09-04T09:37:48.230Z,35.41
2018-09-04T09:38:48.506Z,35.52
2018-09-04T09:40:30.264Z,35.68
2018-09-04T09:41:30.626Z,35.88
2018-09-04T09:42:31.402Z,35.93
2018-09-04T09:43:52.035Z,35.93
2018-09-04T09:44:52.412Z,35.98
2018-09-04T09:45:52.807Z,36.14
2018-09-04T09:46:52.169Z,36.14
2018-09-04T09:47:52.878Z,35.74
2018-09-04T09:48:52.158Z,35.46
2018-09-04T09:49:52.524Z,35.56
2018-09-04T09:50:52.977Z,35.64
2018-09-04T09:51:52.483Z,35.51
2018-09-04T09:53:14.426Z,35.24
2018-09-04T09:54:36.134Z,35.18
2018-09-04T09:55:57.619Z,35.49
2018-09-04T09:56:58.148Z,35.52
2018-09-04T09:57:57.511Z,35.68
2018-09-04T09:58:58.041Z,35.86
2018-09-04T10:00:18.723Z,35.95
2018-09-04T10:01:19.189Z,35.79
2018-09-04T10:02:19.480Z,35.89
2018-09-04T10:03:40.326Z,36.07
2018-09-04T10:04:40.601Z,36.04
2018-09-04T10:05:40.842Z,36.18
2018-09-04T10:06:40.229Z,36.24
2018-09-04T10:08:02.682Z,36.23
2018-09-04T10:09:02.186Z,36.01
2018-09-04T10:10:02.751Z,36.09
2018-09-04T10:11:02.361Z,36.17
2018-09-04T10:12:02.934Z,35.79
2018-09-04T10:13:02.438Z,35.95
2018-09-04T10:14:02.859Z,36.25
2018-09-04T10:15:02.589Z,36.43
2018-09-04T10:16:03.055Z,36.68
2018-09-04T10:17:03.038Z,36.83
2018-09-04T10:18:02.783Z,36.88
2018-09-04T10:19:02.085Z,36.80
2018-09-04T10:20:02.559Z,36.76
2018-09-04T10:21:03.086Z,36.68
2018-09-04T10:22:44.980Z,36.79
2018-09-04T10:23:45.465Z,36.98
2018-09-04T10:24:45.847Z,37.01
2018-09-04T10:25:45.258Z,37.06
2018-09-04T10:26:45.797Z,36.99
2018-09-04T10:27:45.084Z,37.17
2018-09-04T10:28:45.449Z,37.28
2018-09-04T10:29:45.824Z,37.42
2018-09-04T10:31:27.522Z,37.72
2018-09-04T10:32:27.969Z,37.70
2018-09-04T10:33:28.176Z,37.60
2018-09-04T10:34:27.639Z,37.64
2018-09-04T10:35:28.235Z,37.80
2018-09-04T10:36:48.892Z,37.83
2018-09-04T10:37:49.318Z,37.86
2018-09-04T10:38:49.723Z,37.83
2018-09-04T10:39:49.084Z,37.94
2018-09-04T10:40:49.361Z,38.06
2018-09-04T10:42:10.955Z,38.19
2018-09-04T10:43:32.392Z,38.06
2018-09-04T10:44:32.707Z,38.24
2018-09-04T10:45:33.152Z,38.17
2018-09-04T10:46:32.501Z,38.15
2018-09-04T10:47:32.900Z,38.21
2018-09-04T10:48:33.120Z,37.90
2018-09-04T10:49:33.315Z,37.77
2018-09-04T10:50:54.599Z,37.89
2018-09-04T10:51:54.939Z,37.92
2018-09-04T10:53:16.831Z,38.17
2018-09-04T10:54:17.062Z,38.26
2018-09-04T10:55:17.487Z,38.34
2018-09-04T10:56:16.762Z,38.36
2018-09-04T10:57:17.260Z,38.46
2018-09-04T10:58:17.698Z,38.55
2018-09-04T10:59:17.018Z,38.48
2018-09-04T11:00:17.231Z,38.23
2018-09-04T11:01:17.779Z,38.23
2018-09-04T11:02:17.139Z,37.99
2018-09-04T11:03:17.484Z,37.97
2018-09-04T11:04:16.714Z,38.09
2018-09-04T11:05:16.976Z,38.08
2018-09-04T11:06:17.973Z,38.27
2018-09-04T11:07:39.013Z,38.30
2018-09-04T11:08:39.491Z,38.28
2018-09-04T11:09:39.990Z,38.21
2018-09-04T11:10:39.383Z,38.20
2018-09-04T11:11:40.250Z,38.17
2018-09-04T11:12:39.762Z,38.38
2018-09-04T11:13:39.053Z,38.50
2018-09-04T11:14:39.324Z,38.48
2018-09-04T11:15:39.603Z,38.46
2018-09-04T11:17:00.126Z,38.43
2018-09-04T11:18:00.633Z,38.57
2018-09-04T11:19:01.398Z,38.58
2018-09-04T11:20:00.627Z,38.46
2018-09-04T11:21:00.906Z,38.39
2018-09-04T11:22:00.150Z,38.46
2018-09-04T11:23:00.653Z,38.45
2018-09-04T11:24:00.858Z,38.31
2018-09-04T11:25:01.238Z,38.19
2018-09-04T11:26:00.421Z,38.21
2018-09-04T11:27:02.844Z,38.30
2018-09-04T11:28:00.178Z,38.12
2018-09-04T11:29:01.210Z,38.08
2018-09-04T11:30:00.724Z,38.21
2018-09-04T11:31:00.944Z,38.21
2018-09-04T11:32:00.436Z,38.20
2018-09-04T11:33:00.686Z,38.30
2018-09-04T11:34:00.158Z,38.43
2018-09-04T11:35:21.780Z,38.17
2018-09-04T11:36:22.084Z,38.08
2018-09-04T11:37:22.338Z,38.01
2018-09-04T11:38:22.666Z,37.86
2018-09-04T11:39:21.976Z,37.80
2018-09-04T11:40:23.079Z,38.01
2018-09-04T11:41:22.654Z,38.05
2018-09-04T11:42:22.021Z,37.90
2018-09-04T11:43:22.315Z,37.25
2018-09-04T11:44:22.705Z,37.13
2018-09-04T11:45:43.383Z,37.13
2018-09-04T11:46:44.308Z,37.21
2018-09-04T11:47:43.834Z,37.08
2018-09-04T11:48:43.284Z,37.18
2018-09-04T11:49:43.650Z,37.42
2018-09-04T11:50:44.179Z,37.37
2018-09-04T11:51:43.519Z,37.44
2018-09-04T11:53:05.207Z,37.17
2018-09-04T11:54:05.524Z,36.42
2018-09-04T11:55:26.821Z,35.68
2018-09-04T11:56:27.383Z,35.46
2018-09-04T11:57:27.758Z,35.08
2018-09-04T11:58:27.247Z,34.85
2018-09-04T11:59:27.956Z,34.78
2018-09-04T12:00:27.399Z,34.88
2018-09-04T12:01:27.716Z,34.42
2018-09-04T12:02:27.140Z,33.94
2018-09-04T12:03:27.682Z,33.61
2018-09-04T12:04:26.902Z,33.36
2018-09-04T12:05:48.714Z,33.01
2018-09-04T12:06:49.211Z,32.83
2018-09-04T12:08:11.299Z,32.70
2018-09-04T12:09:11.591Z,33.11
2018-09-04T12:10:12.198Z,33.64
2018-09-04T12:11:11.714Z,34.17
2018-09-04T12:12:12.804Z,34.40
2018-09-04T12:13:12.232Z,34.54
2018-09-04T12:14:11.655Z,34.77
2018-09-04T12:15:12.230Z,35.02
2018-09-04T12:16:11.800Z,35.24
2018-09-04T12:17:12.820Z,35.70
2018-09-04T12:18:12.079Z,36.24
2018-09-04T12:19:53.805Z,36.92
2018-09-04T12:20:54.254Z,37.28
2018-09-04T12:21:54.695Z,37.29
2018-09-04T12:22:54.191Z,37.45
2018-09-04T12:23:54.514Z,37.55
2018-09-04T12:24:53.950Z,37.55
2018-09-04T12:25:54.446Z,37.68
2018-09-04T12:26:53.998Z,37.65
2018-09-04T12:27:54.463Z,37.80
2018-09-04T12:28:53.836Z,37.82
2018-09-04T12:29:54.354Z,37.72
2018-09-04T12:30:54.949Z,37.59
2018-09-04T12:31:55.003Z,37.37
2018-09-04T12:32:54.557Z,37.51
2018-09-04T12:34:36.568Z,37.10
2018-09-04T12:35:37.713Z,37.03
2018-09-04T12:36:37.499Z,37.01
2018-09-04T12:37:58.877Z,36.40
2018-09-04T12:38:59.206Z,36.05
2018-09-04T12:40:20.464Z,35.53
2018-09-04T12:41:21.371Z,35.17
2018-09-04T12:42:20.831Z,34.88
2018-09-04T12:43:21.139Z,34.62
2018-09-04T12:44:20.637Z,34.35
2018-09-04T12:45:21.347Z,34.10
2018-09-04T12:46:20.718Z,33.79
2018-09-04T12:47:21.118Z,33.45
2018-09-04T12:48:20.665Z,33.20
2018-09-04T12:49:21.187Z,33.01
2018-09-04T12:50:21.391Z,33.12
2018-09-04T12:51:20.744Z,33.43
2018-09-04T12:52:21.084Z,33.81
2018-09-04T12:53:21.382Z,34.17
2018-09-04T12:54:41.589Z,34.50
2018-09-04T12:55:42.117Z,34.60
2018-09-04T12:56:41.586Z,34.80
2018-09-04T12:58:03.633Z,35.07
2018-09-04T12:59:03.890Z,35.00
2018-09-04T13:00:04.556Z,34.97
2018-09-04T13:01:04.988Z,35.02
2018-09-04T13:02:04.600Z,35.11
2018-09-04T13:03:03.916Z,35.31
2018-09-04T13:04:04.599Z,35.24
2018-09-04T13:05:04.174Z,35.44
2018-09-04T13:06:03.639Z,35.46
2018-09-04T13:07:04.127Z,35.63
2018-09-04T13:08:04.591Z,35.68
2018-09-04T13:09:04.189Z,35.90
2018-09-04T13:10:03.928Z,36.04
2018-09-04T13:11:05.260Z,35.88
2018-09-04T13:12:03.673Z,35.95
2018-09-04T13:13:04.121Z,36.07
2018-09-04T13:14:04.400Z,36.17
2018-09-04T13:15:03.776Z,36.35
2018-09-04T13:16:04.298Z,36.54
2018-09-04T13:17:03.809Z,36.62
2018-09-04T13:18:04.147Z,36.72
2018-09-04T13:19:04.548Z,36.88
2018-09-04T13:20:04.505Z,36.98
2018-09-04T13:21:03.809Z,37.01
2018-09-04T13:22:04.300Z,36.93
2018-09-04T13:23:03.932Z,36.68
2018-09-04T13:24:04.190Z,36.43
2018-09-04T13:25:03.674Z,36.27
2018-09-04T13:26:04.004Z,36.21
2018-09-04T13:27:04.135Z,36.27
2018-09-04T13:28:04.868Z,36.40
2018-09-04T13:29:04.256Z,36.40
2018-09-04T13:30:04.379Z,36.37
2018-09-04T13:31:03.649Z,36.46
2018-09-04T13:32:04.003Z,36.30
2018-09-04T13:33:04.276Z,36.36
2018-09-04T13:34:03.654Z,36.40
2018-09-04T13:35:04.034Z,36.33
2018-09-04T13:36:04.206Z,36.35
2018-09-04T13:37:03.659Z,36.27
2018-09-04T13:38:04.291Z,36.05
2018-09-04T13:39:04.357Z,35.64
2018-09-04T13:40:03.751Z,35.51
2018-09-04T13:41:25.393Z,34.99
2018-09-04T13:42:27.050Z,34.43
2018-09-04T13:43:25.681Z,34.57
2018-09-04T13:44:26.144Z,34.74